createdAt,value
2023-04-10T00:01:49.632Z,98.32
2023-04-10T00:04:17.751Z,98.31
2023-04-10T00:06:45.873Z,98.51
2023-04-10T00:09:13.756Z,98.39
2023-04-10T00:11:41.688Z,98.46
2023-04-10T00:14:09.513Z,98.53
2023-04-10T00:16:37.481Z,99.05
2023-04-10T00:19:05.396Z,97.99
2023-04-10T00:21:33.268Z,98.61
2023-04-10T00:24:01.112Z,98.27
2023-04-10T00:26:28.995Z,98.76
2023-04-10T00:28:56.951Z,98.25
2023-04-10T00:31:24.864Z,98.47
2023-04-10T00:33:53.172Z,98.33
2023-04-10T00:36:21.548Z,98.23
2023-04-10T00:38:52.671Z,98.38
2023-04-10T00:41:20.538Z,98.51
2023-04-10T00:43:48.604Z,98.13
2023-04-10T00:46:16.528Z,98.39
2023-04-10T00:48:44.840Z,98.77
2023-04-10T00:51:12.874Z,98.37
2023-04-10T00:53:40.905Z,97.92
2023-04-10T00:56:09.157Z,97.58
2023-04-10T00:58:36.986Z,97.87
2023-04-10T01:01:06.291Z,97.69
2023-04-10T01:03:34.982Z,97.82
2023-04-10T01:06:08.708Z,98.00
2023-04-10T01:08:48.990Z,98.50
2023-04-10T01:11:40.130Z,98.13
2023-04-10T01:14:31.966Z,97.85
2023-04-10T01:17:13.625Z,98.05
2023-04-10T01:19:47.536Z,98.51
2023-04-10T01:22:17.738Z,98.48
2023-04-10T01:25:15.642Z,98.39
2023-04-10T01:27:54.188Z,98.08
2023-04-10T01:30:23.440Z,98.08
2023-04-10T01:32:56.089Z,97.93
2023-04-10T01:35:26.109Z,98.21
2023-04-10T01:37:56.578Z,98.19
2023-04-10T01:40:26.652Z,98.53
2023-04-10T01:42:56.972Z,98.18
2023-04-10T01:45:33.679Z,98.49
2023-04-10T01:48:02.230Z,98.55
2023-04-10T01:50:31.975Z,98.70
2023-04-10T01:53:02.372Z,98.60
2023-04-10T01:55:32.437Z,98.92
2023-04-10T01:58:06.433Z,98.75
2023-04-10T02:00:42.930Z,98.60
2023-04-10T02:03:12.307Z,98.20
2023-04-10T02:06:09.409Z,98.66
2023-04-10T02:08:41.408Z,99.06
2023-04-10T02:11:34.473Z,98.27
2023-04-10T02:14:08.165Z,98.54
2023-04-10T02:16:38.689Z,98.18
2023-04-10T02:19:07.049Z,98.88
2023-04-10T02:21:36.224Z,98.93
2023-04-10T02:24:04.479Z,98.81
2023-04-10T02:26:45.114Z,98.74
2023-04-10T02:29:13.179Z,99.05
2023-04-10T02:31:41.965Z,98.69
2023-04-10T02:34:10.664Z,99.23
2023-04-10T02:36:40.026Z,99.28
2023-04-10T02:39:09.219Z,99.87
2023-04-10T02:41:46.605Z,99.11
2023-04-10T02:44:15.889Z,99.24
2023-04-10T02:46:44.600Z,99.33
2023-04-10T02:49:13.747Z,99.25
2023-04-10T02:51:41.610Z,99.62
2023-04-10T02:54:09.494Z,99.75
2023-04-10T02:56:38.685Z,99.74
2023-04-10T02:59:07.026Z,99.95
2023-04-10T03:01:35.920Z,99.33
2023-04-10T03:04:04.420Z,99.54
2023-04-10T03:06:37.912Z,99.49
2023-04-10T03:09:06.045Z,99.35
2023-04-10T03:11:35.752Z,99.42
2023-04-10T03:14:04.741Z,99.18
2023-04-10T03:16:33.104Z,99.67
2023-04-10T03:19:04.685Z,99.87
2023-04-10T03:21:32.962Z,99.70
2023-04-10T03:24:01.103Z,99.11
2023-04-10T03:26:28.999Z,99.82
2023-04-10T03:28:57.307Z,99.66
2023-04-10T03:31:25.453Z,99.36
2023-04-10T03:33:57.000Z,98.85
2023-04-10T03:36:25.167Z,99.69
2023-04-10T03:38:53.072Z,99.00
2023-04-10T03:41:23.160Z,98.90
2023-04-10T03:43:53.200Z,99.00
2023-04-10T03:46:22.731Z,98.93
2023-04-10T03:48:54.058Z,98.84
2023-04-10T03:51:24.717Z,98.77
2023-04-10T03:53:53.095Z,98.77
2023-04-10T03:56:21.477Z,99.07
2023-04-10T03:58:49.724Z,99.15
2023-04-10T04:01:17.954Z,99.09
2023-04-10T04:03:59.301Z,98.70
2023-04-10T04:06:47.051Z,98.50
2023-04-10T04:09:43.763Z,99.22
2023-04-10T04:12:27.780Z,98.56
2023-04-10T04:15:23.844Z,98.50
2023-04-10T04:18:16.752Z,98.56
2023-04-10T04:20:49.388Z,98.84
2023-04-10T04:23:37.358Z,98.67
2023-04-10T04:26:09.407Z,98.94
2023-04-10T04:28:54.037Z,99.25
2023-04-10T04:31:37.187Z,98.67
2023-04-10T04:34:16.479Z,98.54
2023-04-10T04:36:44.331Z,99.19
2023-04-10T04:39:25.971Z,98.65
2023-04-10T04:42:16.716Z,98.87
2023-04-10T04:45:12.954Z,98.66
2023-04-10T04:47:59.878Z,98.64
2023-04-10T04:50:35.300Z,98.69
2023-04-10T04:53:15.858Z,98.92
2023-04-10T04:55:59.932Z,99.64
2023-04-10T04:58:46.365Z,98.86
2023-04-10T05:01:32.660Z,98.83
2023-04-10T05:04:26.310Z,98.53
2023-04-10T05:07:20.405Z,98.29
2023-04-10T05:09:48.332Z,97.94
2023-04-10T05:12:38.647Z,98.42
2023-04-10T05:15:45.442Z,97.74
2023-04-10T05:18:31.787Z,97.99
2023-04-10T05:21:07.642Z,97.56
2023-04-10T05:23:54.218Z,97.55
2023-04-10T05:26:44.974Z,97.72
2023-04-10T05:29:25.746Z,98.50
2023-04-10T05:32:06.381Z,98.12
2023-04-10T05:34:51.925Z,98.12
2023-04-10T05:37:33.572Z,97.59
2023-04-10T05:40:36.823Z,97.99
2023-04-10T05:43:23.490Z,97.49
2023-04-10T05:46:13.765Z,97.79
2023-04-10T05:49:01.921Z,98.37
2023-04-10T05:51:35.521Z,98.18
2023-04-10T05:54:17.625Z,98.07
2023-04-10T05:57:05.690Z,97.49
2023-04-10T05:59:36.195Z,97.75
2023-04-10T06:02:24.909Z,96.96
2023-04-10T06:04:53.217Z,96.82
2023-04-10T06:07:21.607Z,97.63
2023-04-10T06:09:49.448Z,97.32
2023-04-10T06:12:17.459Z,97.28
2023-04-10T06:14:45.441Z,97.01
2023-04-10T06:17:13.419Z,97.45
2023-04-10T06:19:41.435Z,96.96
2023-04-10T06:22:09.397Z,97.00
2023-04-10T06:24:37.213Z,96.60
2023-04-10T06:27:05.294Z,96.83
2023-04-10T06:29:33.155Z,96.31
2023-04-10T06:32:01.443Z,96.71
2023-04-10T06:34:32.313Z,96.38
2023-04-10T06:37:04.374Z,96.45
2023-04-10T06:39:32.941Z,96.24
2023-04-10T06:42:01.317Z,96.53
2023-04-10T06:44:49.681Z,96.26
2023-04-10T06:47:18.307Z,95.83
2023-04-10T06:49:46.167Z,96.03
2023-04-10T06:52:14.133Z,96.44
2023-04-10T06:54:42.218Z,96.27
2023-04-10T06:57:10.316Z,96.37
2023-04-10T06:59:38.573Z,96.56
2023-04-10T07:02:06.908Z,95.93
2023-04-10T07:04:34.907Z,95.94
2023-04-10T07:07:02.994Z,95.31
2023-04-10T07:09:31.117Z,94.99
2023-04-10T07:11:59.000Z,95.31
2023-04-10T07:14:26.879Z,94.87
2023-04-10T07:16:54.767Z,94.82
2023-04-10T07:19:22.658Z,95.70
2023-04-10T07:21:50.618Z,95.46
2023-04-10T07:24:18.758Z,95.01
2023-04-10T07:26:46.641Z,95.61
2023-04-10T07:29:14.515Z,95.00
2023-04-10T07:31:42.706Z,95.28
2023-04-10T07:34:11.719Z,95.86
2023-04-10T07:36:39.758Z,95.93
2023-04-10T07:39:07.683Z,95.41
2023-04-10T07:41:35.929Z,95.03
2023-04-10T07:44:03.847Z,95.37
2023-04-10T07:46:31.799Z,95.14
2023-04-10T07:48:59.646Z,94.93
2023-04-10T07:51:27.752Z,94.09
2023-04-10T07:53:56.322Z,94.49
2023-04-10T07:56:24.228Z,94.56
2023-04-10T07:58:52.427Z,94.40
2023-04-10T08:01:20.955Z,93.86
2023-04-10T08:03:49.014Z,93.79
2023-04-10T08:06:17.014Z,93.93
2023-04-10T08:08:44.932Z,94.26
2023-04-10T08:11:24.955Z,94.11
2023-04-10T08:13:58.090Z,93.98
2023-04-10T08:16:27.681Z,94.05
2023-04-10T08:18:57.450Z,93.98
2023-04-10T08:21:27.347Z,94.00
2023-04-10T08:23:57.205Z,92.84
2023-04-10T08:26:26.466Z,93.52
2023-04-10T08:28:56.588Z,93.20
2023-04-10T08:31:26.061Z,93.00
2023-04-10T08:33:54.456Z,92.91
2023-04-10T08:36:22.586Z,92.47
2023-04-10T08:38:50.472Z,92.52
2023-04-10T08:41:19.833Z,93.42
2023-04-10T08:43:49.699Z,92.55
2023-04-10T08:46:17.835Z,93.58
2023-04-10T08:48:55.715Z,92.91
2023-04-10T08:51:37.080Z,92.13
2023-04-10T08:54:19.398Z,92.53
2023-04-10T08:56:51.406Z,92.78
2023-04-10T08:59:19.474Z,91.78
2023-04-10T09:01:48.951Z,91.97
2023-04-10T09:04:18.000Z,91.34
2023-04-10T09:06:47.319Z,90.72
2023-04-10T09:09:15.394Z,91.50
2023-04-10T09:11:56.553Z,90.62
2023-04-10T09:14:29.349Z,89.93
2023-04-10T09:17:23.064Z,89.77
2023-04-10T09:19:53.610Z,89.06
2023-04-10T09:22:32.931Z,89.53
2023-04-10T09:25:01.943Z,89.56
2023-04-10T09:27:33.026Z,89.63
2023-04-10T09:30:01.895Z,89.73
2023-04-10T09:32:45.147Z,90.27
2023-04-10T09:35:15.113Z,88.91
2023-04-10T09:37:45.716Z,88.76
2023-04-10T09:40:25.112Z,88.93
2023-04-10T09:42:56.126Z,88.83
2023-04-10T09:45:24.141Z,89.40
2023-04-10T09:48:03.364Z,88.75
2023-04-10T09:50:39.291Z,88.41
2023-04-10T09:53:20.483Z,88.29
2023-04-10T09:55:49.930Z,87.17
2023-04-10T09:58:18.962Z,87.71
2023-04-10T10:00:48.564Z,87.40
2023-04-10T10:03:18.396Z,86.82
2023-04-10T10:05:49.132Z,86.26
2023-04-10T10:08:17.686Z,86.21
2023-04-10T10:10:52.000Z,85.71
2023-04-10T10:13:34.102Z,84.80
2023-04-10T10:16:08.565Z,85.80
2023-04-10T10:18:51.659Z,84.89
2023-04-10T10:21:21.046Z,84.49
2023-04-10T10:23:54.997Z,84.60
2023-04-10T10:26:23.729Z,83.65
2023-04-10T10:28:55.211Z,83.14
2023-04-10T10:31:25.879Z,82.47
2023-04-10T10:33:54.290Z,81.99
2023-04-10T10:36:22.571Z,82.38
2023-04-10T10:39:14.685Z,80.72
2023-04-10T10:42:01.698Z,80.82
2023-04-10T10:44:38.259Z,81.20
2023-04-10T10:47:24.895Z,79.64
2023-04-10T10:50:03.772Z,81.19
2023-04-10T10:52:43.205Z,78.21
2023-04-10T10:55:23.931Z,76.95
2023-04-10T10:57:55.299Z,77.55
2023-04-10T11:00:25.251Z,76.36
2023-04-10T11:03:08.506Z,71.60
2023-04-10T11:05:56.456Z,72.82
2023-04-10T11:08:33.844Z,73.59
2023-04-10T11:11:08.116Z,71.12
2023-04-10T11:13:38.997Z,71.08
2023-04-10T11:16:12.449Z,67.80
2023-04-10T11:18:47.302Z,63.48
2023-04-10T11:21:18.159Z,63.27
2023-04-10T11:24:02.258Z,64.87
2023-04-10T11:26:36.138Z,61.17
2023-04-10T11:29:06.258Z,64.76
2023-04-10T11:31:34.464Z,61.13
2023-04-10T11:34:04.614Z,61.20
2023-04-10T11:36:39.541Z,59.48
2023-04-10T11:39:17.920Z,60.25
2023-04-10T11:41:50.945Z,58.30
2023-04-10T11:44:28.167Z,54.64
2023-04-10T11:46:57.978Z,53.70
2023-04-10T11:49:30.064Z,53.79
2023-04-10T11:51:57.896Z,55.68
2023-04-10T11:54:27.759Z,52.44
2023-04-10T11:57:09.582Z,51.53
2023-04-10T11:59:37.474Z,52.91
2023-04-10T12:02:16.637Z,52.06
2023-04-10T12:04:44.960Z,53.46
2023-04-10T12:07:13.171Z,48.96
2023-04-10T12:09:41.044Z,48.83
2023-04-10T12:12:08.995Z,49.39
2023-04-10T12:14:39.706Z,47.79
2023-04-10T12:17:09.566Z,48.57
2023-04-10T12:19:39.262Z,51.52
2023-04-10T12:22:07.736Z,47.55
2023-04-10T12:24:53.292Z,49.33
2023-04-10T12:27:29.245Z,48.00
2023-04-10T12:29:58.682Z,44.40
2023-04-10T12:32:29.593Z,44.75
2023-04-10T12:34:58.745Z,44.98
2023-04-10T12:37:50.682Z,46.29
2023-04-10T12:40:20.704Z,44.44
2023-04-10T12:42:48.634Z,46.66
2023-04-10T12:45:16.512Z,45.18
2023-04-10T12:47:47.178Z,44.94
2023-04-10T12:50:17.483Z,43.07
2023-04-10T12:53:00.931Z,42.66
2023-04-10T12:55:31.659Z,42.97
2023-04-10T12:58:18.070Z,43.51
2023-04-10T13:00:46.975Z,42.67
2023-04-10T13:03:14.976Z,44.11
2023-04-10T13:05:42.945Z,41.85
2023-04-10T13:08:10.790Z,43.41
2023-04-10T13:10:38.749Z,44.66
2023-04-10T13:13:07.281Z,42.62
2023-04-10T13:15:35.229Z,42.34
2023-04-10T13:18:05.297Z,40.16
2023-04-10T13:20:35.943Z,40.78
2023-04-10T13:23:04.382Z,37.62
2023-04-10T13:25:33.880Z,35.93
2023-04-10T13:28:02.184Z,34.50
2023-04-10T13:30:30.052Z,34.25
2023-04-10T13:32:57.941Z,31.04
2023-04-10T13:35:25.881Z,29.55
2023-04-10T13:37:54.298Z,26.80
2023-04-10T13:40:22.251Z,27.71
2023-04-10T13:42:50.232Z,28.08
2023-04-10T13:45:18.172Z,29.34
2023-04-10T13:47:46.178Z,28.83
2023-04-10T13:50:14.018Z,32.72
2023-04-10T13:52:41.891Z,34.48
2023-04-10T13:55:10.052Z,32.24
2023-04-10T13:57:38.622Z,32.80
2023-04-10T14:00:08.896Z,32.85
2023-04-10T14:02:42.573Z,34.57
2023-04-10T14:05:10.869Z,34.20
2023-04-10T14:07:38.751Z,33.92
2023-04-10T14:10:07.524Z,33.35
2023-04-10T14:12:37.057Z,34.97
2023-04-10T14:15:06.315Z,32.93
2023-04-10T14:17:34.789Z,31.08
2023-04-10T14:20:02.698Z,31.26
2023-04-10T14:22:31.709Z,31.01
2023-04-10T14:25:11.698Z,31.02
2023-04-10T14:27:40.702Z,30.75
2023-04-10T14:30:09.911Z,31.52
2023-04-10T14:32:41.209Z,30.19
2023-04-10T14:35:09.558Z,31.78
2023-04-10T14:37:37.683Z,32.13
2023-04-10T14:40:06.492Z,32.58
2023-04-10T14:42:34.600Z,31.65
2023-04-10T14:45:02.416Z,32.52
2023-04-10T14:47:30.313Z,32.18
2023-04-10T14:49:58.257Z,32.33
2023-04-10T14:52:26.153Z,33.60
2023-04-10T14:54:54.074Z,34.83
2023-04-10T14:57:21.973Z,35.09
2023-04-10T14:59:49.884Z,34.82
2023-04-10T15:02:17.739Z,36.31
2023-04-10T15:04:45.610Z,36.04
2023-04-10T15:07:14.275Z,36.21
2023-04-10T15:09:43.164Z,37.38
2023-04-10T15:12:11.066Z,38.96
2023-04-10T15:14:38.937Z,38.31
2023-04-10T15:17:07.028Z,39.82
2023-04-10T15:19:34.982Z,38.27
2023-04-10T15:22:02.849Z,38.38
2023-04-10T15:24:32.533Z,38.43
2023-04-10T15:27:06.849Z,40.32
2023-04-10T15:29:39.029Z,38.97
2023-04-10T15:32:07.031Z,39.94
2023-04-10T15:34:34.976Z,41.01
2023-04-10T15:37:02.794Z,41.74
2023-04-10T15:39:33.551Z,42.13
2023-04-10T15:42:01.832Z,41.31
2023-04-10T15:44:30.226Z,40.70
2023-04-10T15:46:58.204Z,40.20
2023-04-10T15:49:37.068Z,40.75
2023-04-10T15:52:06.985Z,41.82
2023-04-10T15:54:35.060Z,41.04
2023-04-10T15:57:04.159Z,41.86
2023-04-10T15:59:33.486Z,42.66
2023-04-10T16:02:01.872Z,42.17
2023-04-10T16:04:30.757Z,42.46
2023-04-10T16:06:58.984Z,42.01
2023-04-10T16:09:27.417Z,42.05
2023-04-10T16:11:56.310Z,43.60
2023-04-10T16:14:24.273Z,41.35
2023-04-10T16:16:52.267Z,41.32
2023-04-10T16:19:20.286Z,41.94
2023-04-10T16:21:48.143Z,41.52
2023-04-10T16:24:16.434Z,41.29
2023-04-10T16:26:44.244Z,40.54
2023-04-10T16:29:12.222Z,41.46
2023-04-10T16:31:40.091Z,43.40
2023-04-10T16:34:08.011Z,42.52
2023-04-10T16:36:36.022Z,42.77
2023-04-10T16:39:03.936Z,43.24
2023-04-10T16:41:31.792Z,43.35
2023-04-10T16:43:59.784Z,42.71
2023-04-10T16:46:27.663Z,42.42
2023-04-10T16:48:55.734Z,44.19
2023-04-10T16:51:24.652Z,43.36
2023-04-10T16:53:53.335Z,44.17
2023-04-10T16:56:21.542Z,45.83
2023-04-10T16:58:49.514Z,45.89
2023-04-10T17:01:19.769Z,45.48
2023-04-10T17:03:48.723Z,45.03
2023-04-10T17:06:17.219Z,44.82
2023-04-10T17:08:45.599Z,45.10
2023-04-10T17:11:13.736Z,43.57
2023-04-10T17:13:42.005Z,44.90
2023-04-10T17:16:09.977Z,45.33
2023-04-10T17:18:37.885Z,46.09
2023-04-10T17:21:06.026Z,46.03
2023-04-10T17:23:33.860Z,46.54
2023-04-10T17:26:05.652Z,46.45
2023-04-10T17:28:34.132Z,46.82
2023-04-10T17:31:01.962Z,47.55
2023-04-10T17:33:29.924Z,46.22
2023-04-10T17:35:57.888Z,47.01
2023-04-10T17:38:25.778Z,48.43
2023-04-10T17:40:53.682Z,47.45
2023-04-10T17:43:22.176Z,48.58
2023-04-10T17:45:50.451Z,47.27
2023-04-10T17:48:18.591Z,47.80
2023-04-10T17:50:46.581Z,47.99
2023-04-10T17:53:14.405Z,48.83
2023-04-10T17:55:42.304Z,47.84
2023-04-10T17:58:10.169Z,47.62
2023-04-10T18:00:40.787Z,48.17
2023-04-10T18:03:09.453Z,47.55
2023-04-10T18:05:39.682Z,49.03
2023-04-10T18:08:08.661Z,49.63
2023-04-10T18:10:36.554Z,49.37
2023-04-10T18:13:04.733Z,49.36
2023-04-10T18:15:32.601Z,49.65
2023-04-10T18:18:01.466Z,49.08
2023-04-10T18:20:29.335Z,50.54
2023-04-10T18:22:57.218Z,50.22
2023-04-10T18:25:25.296Z,51.60
2023-04-10T18:28:13.156Z,51.05
2023-04-10T18:30:41.364Z,50.85
2023-04-10T18:33:11.349Z,53.21
2023-04-10T18:35:39.811Z,53.04
2023-04-10T18:38:07.703Z,52.39
2023-04-10T18:40:36.863Z,51.87
2023-04-10T18:43:05.179Z,51.87
2023-04-10T18:45:34.425Z,52.49
2023-04-10T18:48:02.894Z,53.49
2023-04-10T18:50:34.066Z,53.49
2023-04-10T18:53:01.960Z,53.72
2023-04-10T18:55:30.012Z,54.14
2023-04-10T18:57:58.339Z,54.83
2023-04-10T19:00:26.227Z,56.45
2023-04-10T19:02:55.119Z,56.13
2023-04-10T19:05:23.190Z,55.97
2023-04-10T19:08:03.030Z,56.42
2023-04-10T19:10:32.492Z,56.41
2023-04-10T19:13:00.451Z,57.95
2023-04-10T19:15:28.363Z,58.30
2023-04-10T19:17:56.456Z,58.34
2023-04-10T19:20:50.006Z,59.95
2023-04-10T19:23:13.035Z,59.78
2023-04-10T19:25:41.466Z,59.55
2023-04-10T19:28:09.375Z,60.14
2023-04-10T19:30:37.241Z,60.65
2023-04-10T19:33:05.286Z,61.12
2023-04-10T19:35:33.330Z,61.15
2023-04-10T19:38:01.526Z,62.08
2023-04-10T19:40:30.538Z,62.04
2023-04-10T19:43:00.410Z,62.06
2023-04-10T19:45:29.401Z,62.57
2023-04-10T19:47:57.682Z,62.62
2023-04-10T19:50:28.377Z,62.31
2023-04-10T19:52:56.466Z,63.56
2023-04-10T19:55:24.411Z,64.50
2023-04-10T19:57:52.288Z,63.58
2023-04-10T20:00:20.498Z,64.40
2023-04-10T20:02:48.523Z,63.52
2023-04-10T20:05:16.737Z,64.79
2023-04-10T20:07:44.716Z,64.50
2023-04-10T20:10:12.649Z,64.88
2023-04-10T20:12:40.659Z,63.32
2023-04-10T20:15:09.318Z,63.25
2023-04-10T20:17:38.646Z,63.79
2023-04-10T20:20:07.166Z,62.84
2023-04-10T20:22:35.004Z,63.41
2023-04-10T20:25:03.084Z,63.72
2023-04-10T20:27:30.956Z,62.47
2023-04-10T20:29:58.805Z,63.04
2023-04-10T20:32:26.976Z,63.49
2023-04-10T20:34:54.840Z,64.02
2023-04-10T20:37:22.855Z,63.71
2023-04-10T20:39:50.800Z,62.96
2023-04-10T20:42:19.706Z,63.73
2023-04-10T20:44:47.637Z,64.41
2023-04-10T20:47:15.943Z,64.14
2023-04-10T20:49:43.985Z,64.37
2023-04-10T20:52:11.979Z,65.05
2023-04-10T20:54:39.861Z,65.64
2023-04-10T20:57:07.835Z,65.78
2023-04-10T20:59:36.664Z,66.43
2023-04-10T21:02:04.764Z,65.81
2023-04-10T21:04:32.974Z,64.97
2023-04-10T21:07:00.978Z,63.96
2023-04-10T21:09:28.810Z,64.86
2023-04-10T21:11:57.697Z,64.32
2023-04-10T21:14:25.879Z,64.95
2023-04-10T21:16:53.848Z,63.53
2023-04-10T21:19:21.751Z,64.83
2023-04-10T21:21:49.887Z,65.14
2023-04-10T21:24:17.792Z,66.10
2023-04-10T21:26:45.753Z,65.63
2023-04-10T21:29:13.662Z,65.70
2023-04-10T21:31:41.562Z,66.02
2023-04-10T21:34:09.397Z,65.60
2023-04-10T21:36:38.654Z,66.16
2023-04-10T21:39:09.529Z,67.05
2023-04-10T21:41:38.291Z,66.89
2023-04-10T21:44:06.711Z,66.92
2023-04-10T21:46:34.635Z,65.64
2023-04-10T21:49:03.098Z,66.04
2023-04-10T21:51:31.209Z,65.95
2023-04-10T21:53:59.112Z,66.96
2023-04-10T21:56:26.962Z,66.36
2023-04-10T21:58:55.222Z,66.91
2023-04-10T22:01:23.454Z,66.83
2023-04-10T22:03:51.397Z,65.49
2023-04-10T22:06:19.368Z,67.35
2023-04-10T22:08:47.290Z,67.42
2023-04-10T22:11:15.674Z,67.11
2023-04-10T22:13:43.532Z,66.49
2023-04-10T22:16:11.553Z,66.17
2023-04-10T22:18:39.469Z,67.01
2023-04-10T22:21:07.540Z,66.93
2023-04-10T22:23:35.443Z,67.08
2023-04-10T22:26:03.502Z,66.71
2023-04-10T22:28:31.375Z,67.27
2023-04-10T22:30:59.310Z,67.11
2023-04-10T22:33:27.228Z,66.83
2023-04-10T22:35:55.223Z,67.20
2023-04-10T22:38:23.118Z,66.83
2023-04-10T22:40:53.972Z,66.05
2023-04-10T22:43:21.964Z,67.50
2023-04-10T22:45:49.831Z,67.71
2023-04-10T22:48:17.714Z,66.13
2023-04-10T22:50:45.712Z,66.76
2023-04-10T22:53:13.803Z,67.01
2023-04-10T22:55:41.900Z,66.45
2023-04-10T22:58:10.402Z,67.70
2023-04-10T23:00:38.306Z,66.59
2023-04-10T23:03:06.293Z,66.83
2023-04-10T23:05:34.213Z,67.64
2023-04-10T23:08:02.162Z,68.02
2023-04-10T23:10:30.069Z,66.28
2023-04-10T23:12:57.946Z,67.67
2023-04-10T23:15:25.811Z,67.01
2023-04-10T23:17:53.681Z,67.42
2023-04-10T23:20:21.955Z,67.51
2023-04-10T23:22:49.784Z,68.03
2023-04-10T23:25:17.669Z,68.47
2023-04-10T23:27:45.591Z,69.74
2023-04-10T23:30:13.509Z,68.57
2023-04-10T23:32:41.534Z,69.31
2023-04-10T23:35:09.593Z,70.30
2023-04-10T23:37:37.541Z,68.73
2023-04-10T23:40:05.876Z,69.49
2023-04-10T23:42:33.767Z,69.33
2023-04-10T23:45:01.630Z,70.33
2023-04-10T23:47:29.507Z,68.89
2023-04-10T23:49:57.463Z,68.42
2023-04-10T23:52:25.417Z,70.59
2023-04-10T23:54:55.906Z,70.25
2023-04-10T23:57:23.905Z,70.11
2023-04-10T23:59:52.307Z,69.85
